Pagrindinis puslapis
METAR-TAF:

METAR-TAF

Oro uostai :

Ängelholm–Helsingborg

Helsingborgas, Švedija

platuma: 56-17-46N, ilguma: 012-50-50E, Aukštis: 21 m

Dabartinis oras

Ataskaita buvo paskelbta 41 minutes, ne 16:20 UTC
Vėjas 21 kt iš Šiaurės Vakarų
Temperatūra 6°C
Drėgmė 75%
Slėgis 999 hPa
Matomumas 10 km arba daugiau

METAR: ESTA 071620Z AUTO 31021KT 9999 NCD 06/02 Q0999

Laikas: 18:01 (17:01 UTC)

Prognozė

Ataskaita buvo paskelbta 5 valandos ir 49 minutes, ne 11:12 UTC
Prognozė galioja nuo 07 metu 12 UTC su 07 metu 16 UTC
Vėjas 22 kt iš Vakarų
Matomumas 10 km arba daugiau
Išsisklaidę debesys ne aukštis 2500 ft
Laikinai
nuo 07 metu 12 UTC su 07 metu 16 UTC
Vėjas 25 kt iš Vakarų/Šiaurės Vakarų su gūsio iki 35 kt

TAF: ESTA 071112Z 0712/0716 28022KT 9999 SCT025 TEMPO 0712/0716 30025G35KT

Orai ataskaitas ir orų prognozės (METAR, TAF).

turimą stotys yra geltonos ir raudonos taškus žemėlapyje.

Perkelti pele per norėdami pamatyti stoties vardą.

Tada spustelėkite, norėdami matyti oro stebėjimo ir prognozės.

Norėdami pakeisti žemėlapį: spustelėkite ant žalios mygtukų su juodo kryžiaus žemyn,; žalią mygtuką su brūkšneliu, jei norite nutolinti; arba žalių rodyklių gretimoms žemėlapius.


METAR-TAF: